sensor_id;sensor_type;location;lat;lon;timestamp;pressure;altitude;pressure_sealevel;temperature;humidity
34979;BME280;21185;50.978;13.720;2022-10-04T00:01:24;98849.72;;;13.52;75.71
34979;BME280;21185;50.978;13.720;2022-10-04T00:06:28;98847.44;;;13.49;75.58
34979;BME280;21185;50.978;13.720;2022-10-04T00:11:37;98850.03;;;13.49;75.77
34979;BME280;21185;50.978;13.720;2022-10-04T00:16:44;98851.84;;;13.49;75.74
34979;BME280;21185;50.978;13.720;2022-10-04T00:27:22;98854.44;;;13.49;76.01
34979;BME280;21185;50.978;13.720;2022-10-04T00:32:29;98856.06;;;13.50;75.89
34979;BME280;21185;50.978;13.720;2022-10-04T00:38:01;98848.09;;;13.51;75.79
34979;BME280;21185;50.978;13.720;2022-10-04T00:43:20;98853.31;;;13.51;75.91
34979;BME280;21185;50.978;13.720;2022-10-04T00:48:34;98849.72;;;13.52;75.78
34979;BME280;21185;50.978;13.720;2022-10-04T01:03:57;98853.31;;;13.51;75.90
34979;BME280;21185;50.978;13.720;2022-10-04T01:09:06;98841.25;;;13.50;75.85
34979;BME280;21185;50.978;13.720;2022-10-04T01:15:13;98836.19;;;13.49;75.98
34979;BME280;21185;50.978;13.720;2022-10-04T01:19:55;98832.13;;;13.46;75.88
34979;BME280;21185;50.978;13.720;2022-10-04T01:24:57;98833.09;;;13.45;75.82
34979;BME280;21185;50.978;13.720;2022-10-04T01:30:00;98829.84;;;13.43;75.97
34979;BME280;21185;50.978;13.720;2022-10-04T01:35:03;98834.25;;;13.43;75.87
34979;BME280;21185;50.978;13.720;2022-10-04T01:40:09;98824.16;;;13.40;75.96
34979;BME280;21185;50.978;13.720;2022-10-04T01:50:56;98839.31;;;13.36;75.98
34979;BME280;21185;50.978;13.720;2022-10-04T01:56:12;98838.03;;;13.32;76.05
34979;BME280;21185;50.978;13.720;2022-10-04T02:06:40;98819.78;;;13.32;76.05
34979;BME280;21185;50.978;13.720;2022-10-04T02:11:43;98819.13;;;13.30;75.96
34979;BME280;21185;50.978;13.720;2022-10-04T02:16:48;98821.91;;;13.28;76.02
34979;BME280;21185;50.978;13.720;2022-10-04T02:21:53;98809.03;;;13.27;75.98
34979;BME280;21185;50.978;13.720;2022-10-04T02:26:57;98822.22;;;13.25;75.98
34979;BME280;21185;50.978;13.720;2022-10-04T02:31:59;98821.75;;;13.22;76.07
34979;BME280;21185;50.978;13.720;2022-10-04T02:37:24;98807.25;;;13.19;76.00
34979;BME280;21185;50.978;13.720;2022-10-04T02:42:57;98816.06;;;13.18;76.26
34979;BME280;21185;50.978;13.720;2022-10-04T02:48:10;98816.06;;;13.18;76.24
34979;BME280;21185;50.978;13.720;2022-10-04T02:53:24;98818.81;;;13.17;76.13
34979;BME280;21185;50.978;13.720;2022-10-04T02:58:28;98807.06;;;13.13;76.06
34979;BME280;21185;50.978;13.720;2022-10-04T03:03:46;98808.72;;;13.14;76.22
34979;BME280;21185;50.978;13.720;2022-10-04T03:08:56;98801.88;;;13.13;76.20
34979;BME280;21185;50.978;13.720;2022-10-04T03:14:01;98801.06;;;13.12;76.03
34979;BME280;21185;50.978;13.720;2022-10-04T03:19:06;98802.84;;;13.12;76.06
34979;BME280;21185;50.978;13.720;2022-10-04T03:24:17;98791.78;;;13.10;76.29
34979;BME280;21185;50.978;13.720;2022-10-04T03:29:22;98802.19;;;13.10;76.27
34979;BME280;21185;50.978;13.720;2022-10-04T03:34:33;98793.72;;;13.08;76.35
34979;BME280;21185;50.978;13.720;2022-10-04T03:39:45;98796.16;;;13.09;76.34
34979;BME280;21185;50.978;13.720;2022-10-04T03:44:49;98794.72;;;13.07;76.29
34979;BME280;21185;50.978;13.720;2022-10-04T03:49:53;98789.34;;;13.08;76.57
34979;BME280;21185;50.978;13.720;2022-10-04T03:54:59;98794.53;;;13.08;76.23
34979;BME280;21185;50.978;13.720;2022-10-04T04:00:04;98790.16;;;13.09;76.15
34979;BME280;21185;50.978;13.720;2022-10-04T04:05:18;98804.81;;;13.10;76.39
34979;BME280;21185;50.978;13.720;2022-10-04T04:10:23;98792.91;;;13.07;76.43
34979;BME280;21185;50.978;13.720;2022-10-04T04:15:28;98783.47;;;13.06;76.38
34979;BME280;21185;50.978;13.720;2022-10-04T04:20:36;98797.31;;;13.07;76.45
34979;BME280;21185;50.978;13.720;2022-10-04T04:25:42;98803.34;;;13.07;76.50
34979;BME280;21185;50.978;13.720;2022-10-04T04:30:47;98803.34;;;13.07;76.33
34979;BME280;21185;50.978;13.720;2022-10-04T04:35:57;98808.56;;;13.07;76.36
34979;BME280;21185;50.978;13.720;2022-10-04T04:41:08;98817.34;;;13.06;76.14
34979;BME280;21185;50.978;13.720;2022-10-04T04:46:11;98812.28;;;13.05;76.38
34979;BME280;21185;50.978;13.720;2022-10-04T04:51:29;98814.25;;;13.03;76.59
34979;BME280;21185;50.978;13.720;2022-10-04T04:56:33;98813.59;;;13.01;76.56
34979;BME280;21185;50.978;13.720;2022-10-04T05:01:42;98812.78;;;13.00;76.49
34979;BME280;21185;50.978;13.720;2022-10-04T05:06:57;98816.38;;;12.99;76.52
34979;BME280;21185;50.978;13.720;2022-10-04T05:12:16;98825.34;;;12.96;76.62
34979;BME280;21185;50.978;13.720;2022-10-04T05:17:25;98820.28;;;12.95;76.71
34979;BME280;21185;50.978;13.720;2022-10-04T05:22:29;98819.47;;;12.94;76.61
34979;BME280;21185;50.978;13.720;2022-10-04T05:27:36;98823.06;;;12.93;76.69
34979;BME280;21185;50.978;13.720;2022-10-04T05:38:29;98836.88;;;12.94;76.62
34979;BME280;21185;50.978;13.720;2022-10-04T05:43:35;98834.28;;;12.94;76.53
34979;BME280;21185;50.978;13.720;2022-10-04T05:48:38;98840.31;;;12.94;76.65
34979;BME280;21185;50.978;13.720;2022-10-04T05:53:43;98846.50;;;12.93;76.53
34979;BME280;21185;50.978;13.720;2022-10-04T06:10:04;98857.88;;;13.01;76.56
34979;BME280;21185;50.978;13.720;2022-10-04T06:25:51;98869.94;;;13.10;76.31
34979;BME280;21185;50.978;13.720;2022-10-04T07:08:35;98895.53;;;13.39;76.15
34979;BME280;21185;50.978;13.720;2022-10-04T07:14:14;98893.88;;;13.46;76.37
34979;BME280;21185;50.978;13.720;2022-10-04T07:24:29;98899.09;;;13.54;76.17
34979;BME280;21185;50.978;13.720;2022-10-04T07:29:38;98899.22;;;13.69;75.97
34979;BME280;21185;50.978;13.720;2022-10-04T07:34:50;98904.56;;;13.83;75.96
34979;BME280;21185;50.978;13.720;2022-10-04T07:50:24;98905.31;;;14.00;75.80
34979;BME280;21185;50.978;13.720;2022-10-04T07:55:28;98917.88;;;14.05;75.93
34979;BME280;21185;50.978;13.720;2022-10-04T08:00:49;98910.19;;;14.11;75.88
34979;BME280;21185;50.978;13.720;2022-10-04T08:06:07;98913.09;;;14.16;75.82
34979;BME280;21185;50.978;13.720;2022-10-04T08:16:36;98919.44;;;14.22;75.87
34979;BME280;21185;50.978;13.720;2022-10-04T08:22:31;98927.09;;;14.23;75.80
34979;BME280;21185;50.978;13.720;2022-10-04T08:32:35;98938.16;;;14.34;75.83
34979;BME280;21185;50.978;13.720;2022-10-04T08:54:40;98942.59;;;14.64;75.57
34979;BME280;21185;50.978;13.720;2022-10-04T08:59:59;98948.81;;;14.63;75.47
34979;BME280;21185;50.978;13.720;2022-10-04T09:31:43;98945.47;;;14.77;75.07
34979;BME280;21185;50.978;13.720;2022-10-04T09:42:31;98947.91;;;15.02;74.54
34979;BME280;21185;50.978;13.720;2022-10-04T09:53:36;98938.91;;;15.27;74.17
34979;BME280;21185;50.978;13.720;2022-10-04T10:09:36;98951.81;;;15.29;73.97
34979;BME280;21185;50.978;13.720;2022-10-04T10:15:57;98943.84;;;15.22;73.88
34979;BME280;21185;50.978;13.720;2022-10-04T10:20:54;98951.34;;;15.25;73.85
34979;BME280;21185;50.978;13.720;2022-10-04T10:26:17;98947.31;;;15.37;73.67
34979;BME280;21185;50.978;13.720;2022-10-04T10:31:44;98950.69;;;15.46;73.65
34979;BME280;21185;50.978;13.720;2022-10-04T10:58:14;98958.78;;;15.59;73.55
34979;BME280;21185;50.978;13.720;2022-10-04T11:09:00;98951.44;;;15.54;73.27
34979;BME280;21185;50.978;13.720;2022-10-04T11:40:48;98932.63;;;15.88;72.60
34979;BME280;21185;50.978;13.720;2022-10-04T12:55:54;98883.91;;;16.38;69.82
34979;BME280;21185;50.978;13.720;2022-10-04T13:01:18;98887.09;;;16.34;69.82
34979;BME280;21185;50.978;13.720;2022-10-04T13:06:50;98886.47;;;16.32;69.41
34979;BME280;21185;50.978;13.720;2022-10-04T13:17:38;98893.69;;;16.30;69.88
34979;BME280;21185;50.978;13.720;2022-10-04T13:28:36;98886.56;;;16.24;69.70
34979;BME280;21185;50.978;13.720;2022-10-04T14:06:58;98892.59;;;16.24;68.64
34979;BME280;21185;50.978;13.720;2022-10-04T14:12:31;98872.09;;;16.28;68.50
34979;BME280;21185;50.978;13.720;2022-10-04T14:29:02;98873.72;;;16.29;68.27
34979;BME280;21185;50.978;13.720;2022-10-04T14:45:27;98860.91;;;16.34;68.22
34979;BME280;21185;50.978;13.720;2022-10-04T15:07:14;98851.16;;;16.28;68.04
34979;BME280;21185;50.978;13.720;2022-10-04T15:18:00;98842.22;;;16.22;67.70
34979;BME280;21185;50.978;13.720;2022-10-04T15:23:47;98836.53;;;16.18;67.57
34979;BME280;21185;50.978;13.720;2022-10-04T15:39:34;98810.41;;;16.04;67.51
34979;BME280;21185;50.978;13.720;2022-10-04T15:50:34;98797.97;;;15.91;67.72
34979;BME280;21185;50.978;13.720;2022-10-04T16:06:24;98794.41;;;15.63;68.25
34979;BME280;21185;50.978;13.720;2022-10-04T16:22:30;98775.47;;;15.31;68.75
34979;BME280;21185;50.978;13.720;2022-10-04T16:42:59;98786.31;;;14.90;69.04
34979;BME280;21185;50.978;13.720;2022-10-04T16:48:10;98807.13;;;14.84;69.12
34979;BME280;21185;50.978;13.720;2022-10-04T16:58:56;98815.09;;;14.68;69.20
34979;BME280;21185;50.978;13.720;2022-10-04T17:19:51;98812.03;;;14.33;69.50
34979;BME280;21185;50.978;13.720;2022-10-04T17:30:23;98813.41;;;14.21;69.58
34979;BME280;21185;50.978;13.720;2022-10-04T17:35:50;98815.72;;;14.16;69.61
34979;BME280;21185;50.978;13.720;2022-10-04T17:46:30;98807.47;;;14.04;69.71
34979;BME280;21185;50.978;13.720;2022-10-04T18:02:11;98816.66;;;13.92;69.61
34979;BME280;21185;50.978;13.720;2022-10-04T18:07:21;98805.56;;;13.90;69.76
34979;BME280;21185;50.978;13.720;2022-10-04T18:12:32;98812.59;;;13.89;69.71
34979;BME280;21185;50.978;13.720;2022-10-04T18:17:49;98821.22;;;13.90;69.74
34979;BME280;21185;50.978;13.720;2022-10-04T18:23:15;98828.06;;;13.91;69.75
34979;BME280;21185;50.978;13.720;2022-10-04T18:28:21;98840.59;;;13.96;69.77
34979;BME280;21185;50.978;13.720;2022-10-04T18:38:41;98839.44;;;13.98;69.66
34979;BME280;21185;50.978;13.720;2022-10-04T18:44:02;98836.66;;;14.00;69.91
34979;BME280;21185;50.978;13.720;2022-10-04T18:49:19;98831.28;;;14.01;69.67
34979;BME280;21185;50.978;13.720;2022-10-04T19:00:07;98821.50;;;14.03;69.55
34979;BME280;21185;50.978;13.720;2022-10-04T19:11:12;98833.63;;;13.88;69.83
34979;BME280;21185;50.978;13.720;2022-10-04T19:17:15;98836.44;;;13.78;69.55
34979;BME280;21185;50.978;13.720;2022-10-04T19:22:02;98838.59;;;13.67;69.58
34979;BME280;21185;50.978;13.720;2022-10-04T19:38:41;98849.56;;;13.46;69.77
34979;BME280;21185;50.978;13.720;2022-10-04T19:48:27;98846.81;;;13.31;69.63
34979;BME280;21185;50.978;13.720;2022-10-04T19:53:40;98844.88;;;13.25;69.50
34979;BME280;21185;50.978;13.720;2022-10-04T19:59:05;98851.41;;;13.21;69.51
34979;BME280;21185;50.978;13.720;2022-10-04T20:04:15;98861.47;;;13.16;69.44
34979;BME280;21185;50.978;13.720;2022-10-04T20:19:39;98870.28;;;13.23;69.64
34979;BME280;21185;50.978;13.720;2022-10-04T20:34:49;98884.94;;;13.24;69.51
34979;BME280;21185;50.978;13.720;2022-10-04T20:50:34;98885.91;;;13.07;69.66
34979;BME280;21185;50.978;13.720;2022-10-04T20:55:36;98884.09;;;12.99;69.63
34979;BME280;21185;50.978;13.720;2022-10-04T21:00:50;98885.25;;;12.96;69.63
34979;BME280;21185;50.978;13.720;2022-10-04T21:06:05;98894.34;;;12.92;69.65
34979;BME280;21185;50.978;13.720;2022-10-04T21:11:17;98899.56;;;12.92;69.64
34979;BME280;21185;50.978;13.720;2022-10-04T21:21:48;98900.53;;;12.83;69.73
34979;BME280;21185;50.978;13.720;2022-10-04T21:26:56;98905.56;;;12.77;69.64
34979;BME280;21185;50.978;13.720;2022-10-04T21:31:58;98903.44;;;12.72;69.56
34979;BME280;21185;50.978;13.720;2022-10-04T21:37:00;98895.78;;;12.71;69.18
34979;BME280;21185;50.978;13.720;2022-10-04T21:42:03;98895.63;;;12.72;69.50
34979;BME280;21185;50.978;13.720;2022-10-04T21:47:05;98886.03;;;12.73;69.64
34979;BME280;21185;50.978;13.720;2022-10-04T21:52:07;98890.44;;;12.72;69.25
34979;BME280;21185;50.978;13.720;2022-10-04T21:57:09;98884.41;;;12.72;69.56
34979;BME280;21185;50.978;13.720;2022-10-04T22:02:11;98879.34;;;12.70;69.60
34979;BME280;21185;50.978;13.720;2022-10-04T22:07:15;98869.25;;;12.67;69.59
34979;BME280;21185;50.978;13.720;2022-10-04T22:12:17;98866.81;;;12.65;69.70
34979;BME280;21185;50.978;13.720;2022-10-04T22:17:18;98860.16;;;12.63;69.70
34979;BME280;21185;50.978;13.720;2022-10-04T22:22:20;98866.66;;;12.59;69.52
34979;BME280;21185;50.978;13.720;2022-10-04T22:27:28;98874.78;;;12.56;69.61
34979;BME280;21185;50.978;13.720;2022-10-04T22:32:30;98875.25;;;12.51;69.68
34979;BME280;21185;50.978;13.720;2022-10-04T22:37:33;98861.09;;;12.46;69.79
34979;BME280;21185;50.978;13.720;2022-10-04T22:42:35;98835.38;;;12.43;69.63
34979;BME280;21185;50.978;13.720;2022-10-04T22:47:36;98827.91;;;12.40;69.63
34979;BME280;21185;50.978;13.720;2022-10-04T22:52:38;98813.41;;;12.37;69.66
34979;BME280;21185;50.978;13.720;2022-10-04T22:57:40;98812.59;;;12.37;69.69
34979;BME280;21185;50.978;13.720;2022-10-04T23:02:42;98795.19;;;12.37;69.71
34979;BME280;21185;50.978;13.720;2022-10-04T23:07:45;98785.13;;;12.34;69.55
34979;BME280;21185;50.978;13.720;2022-10-04T23:12:48;98775.53;;;12.35;69.63
34979;BME280;21185;50.978;13.720;2022-10-04T23:17:53;98780.06;;;12.32;69.51
34979;BME280;21185;50.978;13.720;2022-10-04T23:22:57;98771.13;;;12.35;69.56
34979;BME280;21185;50.978;13.720;2022-10-04T23:28:02;98767.22;;;12.31;69.34
34979;BME280;21185;50.978;13.720;2022-10-04T23:33:15;98769.31;;;12.27;69.56
34979;BME280;21185;50.978;13.720;2022-10-04T23:38:19;98757.63;;;12.23;69.40
34979;BME280;21185;50.978;13.720;2022-10-04T23:43:23;98751.44;;;12.16;69.35
34979;BME280;21185;50.978;13.720;2022-10-04T23:48:27;98746.69;;;12.12;69.43
34979;BME280;21185;50.978;13.720;2022-10-04T23:53:32;98748.66;;;12.10;69.52
34979;BME280;21185;50.978;13.720;2022-10-04T23:58:38;98733.19;;;12.08;69.41
